Time;durP1;ratioP1;P1;durP2;ratioP2;P2;SDS_P1;SDS_P2;PMS_P1;PMS_P2;Temp;Humidity;BMP_temperature;BMP_pressure;BME280_temperature;BME280_humidity;BME280_pressure;Samples;Min_cycle;Max_cycle;Signal;HPM_P1;HPM_P2
2021/10/03 00:01:04;;;;;;;5.70;5.20;;;17.00;1.00;;;;;;5140258;27;20492;-62
2021/10/03 00:03:31;;;;;;;6.73;5.17;;;17.10;1.00;;;;;;5139895;27;20482;-62
2021/10/03 00:06:03;;;;;;;5.90;5.00;;;17.10;1.00;;;;;;5139786;27;20508;-62
2021/10/03 00:08:30;;;;;;;7.77;4.63;;;17.00;1.00;;;;;;5139707;27;20459;-63
2021/10/03 00:10:58;;;;;;;5.30;4.77;;;17.00;1.00;;;;;;5132461;27;20507;-64
2021/10/03 00:13:28;;;;;;;6.03;4.30;;;17.00;1.00;;;;;;5139770;27;20458;-64
2021/10/03 00:15:57;;;;;;;5.07;4.37;;;16.90;1.00;;;;;;5139522;27;20459;-64
2021/10/03 00:18:27;;;;;;;5.33;4.90;;;16.90;1.00;;;;;;5139707;27;20542;-65
2021/10/03 00:20:55;;;;;;;4.87;4.07;;;16.80;17.60;;;;;;5139716;27;20490;-67
2021/10/03 00:23:24;;;;;;;5.90;4.70;;;16.80;99.90;;;;;;5139036;27;20498;-66
2021/10/03 00:25:51;;;;;;;5.30;4.53;;;16.60;99.90;;;;;;5139221;27;20515;-66
2021/10/03 00:28:19;;;;;;;6.47;5.03;;;16.60;99.90;;;;;;5139566;27;20787;-66
2021/10/03 00:30:46;;;;;;;5.03;4.57;;;16.50;1.00;;;;;;5139375;27;20454;-67
2021/10/03 00:33:16;;;;;;;5.00;4.50;;;16.50;1.00;;;;;;5138964;27;20458;-66
2021/10/03 00:35:44;;;;;;;6.00;4.70;;;16.40;50.90;;;;;;5138628;27;20458;-66
2021/10/03 00:38:11;;;;;;;9.67;5.50;;;16.30;99.90;;;;;;5139427;27;20865;-67
2021/10/03 00:40:46;;;;;;;4.93;4.43;;;16.30;65.70;;;;;;5139302;27;20463;-65
2021/10/03 00:43:14;;;;;;;4.77;4.37;;;16.30;1.00;;;;;;5139483;27;20458;-66
2021/10/03 00:45:45;;;;;;;5.13;4.30;;;16.30;99.90;;;;;;5139248;27;20463;-65
2021/10/03 00:48:12;;;;;;;5.67;4.83;;;16.20;99.90;;;;;;5139208;27;20462;-66
2021/10/03 00:50:41;;;;;;;4.93;3.97;;;16.20;1.00;;;;;;5139216;27;20508;-65
2021/10/03 00:53:08;;;;;;;4.87;4.47;;;16.10;99.90;;;;;;5139283;27;20469;-66
2021/10/03 00:55:40;;;;;;;5.53;4.57;;;16.10;1.00;;;;;;5139286;27;20527;-66
2021/10/03 00:58:17;;;;;;;6.33;5.50;;;16.00;1.00;;;;;;5138085;27;20531;-67
2021/10/03 01:00:44;;;;;;;9.63;5.30;;;16.00;1.00;;;;;;5138671;27;20458;-65
2021/10/03 01:03:12;;;;;;;5.43;4.93;;;16.00;81.60;;;;;;5138445;27;20494;-65
2021/10/03 01:05:39;;;;;;;5.13;4.70;;;15.90;99.90;;;;;;5138801;27;20515;-66
2021/10/03 01:08:07;;;;;;;4.97;4.57;;;15.90;99.90;;;;;;5138883;27;20433;-66
2021/10/03 01:10:34;;;;;;;4.50;4.10;;;15.80;99.90;;;;;;5138390;27;20523;-65
2021/10/03 01:13:05;;;;;;;4.83;4.43;;;15.80;99.90;;;;;;5138488;27;20888;-68
2021/10/03 01:15:38;;;;;;;4.73;4.17;;;15.80;99.90;;;;;;5138647;27;20810;-66
2021/10/03 01:18:06;;;;;;;5.07;4.60;;;15.80;99.90;;;;;;5138537;27;20810;-66
2021/10/03 01:20:35;;;;;;;5.70;4.87;;;15.80;99.90;;;;;;5138489;27;20490;-65
2021/10/03 01:23:04;;;;;;;5.20;4.70;;;15.80;99.90;;;;;;5133106;27;20964;-65
2021/10/03 01:25:32;;;;;;;5.87;4.70;;;15.80;99.90;;;;;;5138437;27;20545;-65
2021/10/03 01:27:59;;;;;;;6.37;5.00;;;15.90;99.90;;;;;;5138344;27;20757;-66
2021/10/03 01:30:27;;;;;;;5.50;4.63;;;15.80;99.90;;;;;;5138283;27;20459;-65
2021/10/03 01:32:54;;;;;;;5.43;4.93;;;15.80;99.90;;;;;;5138699;27;20455;-65
2021/10/03 01:35:22;;;;;;;6.70;4.70;;;15.80;43.20;;;;;;5138994;27;20512;-64
2021/10/03 01:37:50;;;;;;;4.53;4.13;;;15.90;1.00;;;;;;5138870;27;20512;-64
2021/10/03 01:40:20;;;;;;;4.17;3.73;;;15.90;1.00;;;;;;5139101;27;20800;-64
2021/10/03 01:42:47;;;;;;;5.97;3.80;;;15.90;99.90;;;;;;5138879;27;20539;-65
2021/10/03 01:45:23;;;;;;;4.33;3.93;;;15.90;1.00;;;;;;5138805;27;20458;-64
2021/10/03 01:48:09;;;;;;;4.50;4.00;;;16.00;71.50;;;;;;5138230;27;20836;-64
2021/10/03 01:50:41;;;;;;;7.17;4.50;;;16.10;99.90;;;;;;5138737;27;20459;-63
2021/10/03 01:53:10;;;;;;;5.30;3.93;;;16.00;91.00;;;;;;5138785;27;20454;-65
2021/10/03 01:55:39;;;;;;;4.50;3.93;;;16.10;1.00;;;;;;5138698;27;20511;-63
2021/10/03 01:58:08;;;;;;;4.30;3.90;;;16.10;99.90;;;;;;5138173;27;20547;-64
2021/10/03 02:00:36;;;;;;;5.13;4.30;;;16.20;1.00;;;;;;5138480;27;20454;-64
2021/10/03 02:03:07;;;;;;;4.77;3.80;;;16.30;99.90;;;;;;5137903;27;20495;-64
2021/10/03 02:05:39;;;;;;;4.40;3.97;;;16.30;99.90;;;;;;5138754;27;20459;-64
2021/10/03 02:08:08;;;;;;;6.07;4.37;;;16.30;99.90;;;;;;5138298;27;20486;-64
2021/10/03 02:10:36;;;;;;;4.80;4.10;;;16.30;99.90;;;;;;5137952;27;20586;-64
2021/10/03 02:13:07;;;;;;;4.90;3.87;;;16.30;99.90;;;;;;5137463;27;20457;-63
2021/10/03 02:15:35;;;;;;;5.00;4.47;;;16.30;99.90;;;;;;5137791;27;20841;-66
2021/10/03 02:18:06;;;;;;;4.07;3.67;;;16.20;99.90;;;;;;5137077;27;20534;-66
2021/10/03 02:20:34;;;;;;;5.13;3.83;;;16.20;99.90;;;;;;5137483;27;20537;-64
2021/10/03 02:23:01;;;;;;;5.13;4.20;;;16.20;99.90;;;;;;5121345;27;20497;-65
2021/10/03 02:25:28;;;;;;;3.93;3.63;;;16.20;99.90;;;;;;5137379;27;20488;-67
2021/10/03 02:27:55;;;;;;;4.53;4.13;;;16.20;99.90;;;;;;5137365;28;20486;-65
2021/10/03 02:30:24;;;;;;;4.10;3.63;;;16.20;99.90;;;;;;5137724;28;20764;-63
2021/10/03 02:32:54;;;;;;;6.70;4.20;;;16.20;99.90;;;;;;5137493;28;20494;-64
2021/10/03 02:35:21;;;;;;;4.10;3.70;;;16.20;99.90;;;;;;5137586;28;20512;-64
2021/10/03 02:37:48;;;;;;;4.40;4.00;;;16.20;99.90;;;;;;5136929;28;20535;-64
2021/10/03 02:40:17;;;;;;;4.37;3.90;;;16.30;99.90;;;;;;5137147;28;20462;-65
2021/10/03 02:42:45;;;;;;;4.07;3.53;;;16.20;99.90;;;;;;5136963;28;20550;-64
2021/10/03 02:45:12;;;;;;;4.33;3.47;;;16.20;99.90;;;;;;5137576;28;20515;-64
2021/10/03 02:47:41;;;;;;;5.43;3.93;;;16.20;99.90;;;;;;5140140;27;20462;-63
2021/10/03 02:50:11;;;;;;;4.83;3.50;;;16.20;99.90;;;;;;5141528;27;20512;-65
2021/10/03 02:52:38;;;;;;;4.30;3.97;;;16.20;47.80;;;;;;5141250;27;20484;-63
2021/10/03 02:55:08;;;;;;;9.43;4.13;;;16.20;66.10;;;;;;5141357;27;20511;-63
2021/10/03 02:57:35;;;;;;;3.87;3.47;;;16.20;51.80;;;;;;5141027;27;20458;-63
2021/10/03 03:00:04;;;;;;;5.03;3.50;;;16.20;62.90;;;;;;5141254;27;20597;-63
2021/10/03 03:02:33;;;;;;;5.53;4.33;;;16.20;57.50;;;;;;5140287;27;20494;-62
2021/10/03 03:05:01;;;;;;;4.50;4.10;;;16.20;18.90;;;;;;5141562;27;20489;-64
2021/10/03 03:07:29;;;;;;;6.47;4.50;;;16.30;1.00;;;;;;5140994;27;20458;-65
2021/10/03 03:09:55;;;;;;;5.20;4.70;;;16.20;34.20;;;;;;5135106;27;20520;-63
2021/10/03 03:12:22;;;;;;;4.67;4.27;;;16.20;6.50;;;;;;5127315;27;20810;-63
2021/10/03 03:14:49;;;;;;;5.63;4.50;;;16.20;16.90;;;;;;5140992;27;20433;-63
2021/10/03 03:17:18;;;;;;;4.30;3.90;;;16.20;1.00;;;;;;5141130;27;20450;-63
2021/10/03 03:19:45;;;;;;;4.33;3.97;;;16.20;2.30;;;;;;5141242;27;20938;-62
2021/10/03 03:22:14;;;;;;;4.27;3.87;;;16.20;1.00;;;;;;5139885;27;20518;-63
2021/10/03 03:24:42;;;;;;;5.30;4.43;;;16.30;1.00;;;;;;5140857;27;20721;-64
2021/10/03 03:27:10;;;;;;;5.27;4.77;;;16.30;1.00;;;;;;5140972;27;20469;-65
2021/10/03 03:29:37;;;;;;;5.00;4.50;;;16.30;1.00;;;;;;5140682;27;20487;-65
2021/10/03 03:32:08;;;;;;;4.77;4.37;;;16.30;1.00;;;;;;5140423;27;20517;-66
2021/10/03 03:34:35;;;;;;;7.37;4.23;;;16.30;1.00;;;;;;5140696;27;20480;-66
2021/10/03 03:37:02;;;;;;;5.70;4.80;;;16.20;9.20;;;;;;5140711;27;20458;-66
2021/10/03 03:39:31;;;;;;;4.87;4.47;;;16.20;74.60;;;;;;5139855;27;20458;-65
2021/10/03 03:41:58;;;;;;;6.70;5.00;;;16.10;40.00;;;;;;5140255;27;20582;-66
2021/10/03 03:44:25;;;;;;;5.83;5.20;;;16.10;99.90;;;;;;5140690;27;20823;-67
2021/10/03 03:46:52;;;;;;;5.50;5.00;;;16.00;99.90;;;;;;5140330;27;20462;-67
2021/10/03 03:49:21;;;;;;;6.37;5.77;;;15.90;99.90;;;;;;5140150;27;20491;-66
2021/10/03 03:51:51;;;;;;;8.50;6.03;;;15.90;99.90;;;;;;5139718;27;20496;-66
2021/10/03 03:54:19;;;;;;;7.00;6.30;;;15.90;1.00;;;;;;5140321;27;20458;-66
2021/10/03 03:56:47;;;;;;;7.70;5.40;;;15.90;1.00;;;;;;5140435;27;20556;-67
2021/10/03 03:59:17;;;;;;;6.73;6.03;;;15.90;1.00;;;;;;5138826;27;20857;-67
2021/10/03 04:01:44;;;;;;;6.70;6.10;;;15.90;1.00;;;;;;5139861;27;20454;-67
2021/10/03 04:04:11;;;;;;;9.10;6.10;;;15.80;11.20;;;;;;5139758;27;20498;-67
2021/10/03 04:06:38;;;;;;;6.50;5.90;;;15.70;99.90;;;;;;5140115;27;20901;-67
2021/10/03 04:09:06;;;;;;;7.63;6.70;;;15.80;1.00;;;;;;5139825;27;20462;-68
2021/10/03 04:11:33;;;;;;;9.33;6.30;;;15.70;1.00;;;;;;5139769;27;20458;-70
2021/10/03 04:14:02;;;;;;;7.60;6.80;;;15.70;1.00;;;;;;5139801;27;20482;-68
2021/10/03 04:16:29;;;;;;;7.13;6.43;;;15.70;99.20;;;;;;5140244;27;20782;-67
2021/10/03 04:18:56;;;;;;;8.17;7.40;;;15.70;1.00;;;;;;5139564;27;20458;-67
2021/10/03 04:21:25;;;;;;;9.07;7.27;;;15.70;1.00;;;;;;5139687;27;20459;-70
2021/10/03 04:23:52;;;;;;;9.70;7.67;;;15.70;1.40;;;;;;5139801;27;20574;-68
2021/10/03 04:26:19;;;;;;;7.83;7.10;;;15.70;99.90;;;;;;5139528;27;20516;-67
2021/10/03 04:28:46;;;;;;;9.80;8.10;;;15.70;1.00;;;;;;5139523;27;20508;-68
2021/10/03 04:31:15;;;;;;;9.40;7.80;;;15.60;1.00;;;;;;5139780;27;20507;-67
2021/10/03 04:33:42;;;;;;;7.73;7.03;;;15.70;99.90;;;;;;5139642;27;20454;-66
2021/10/03 04:36:09;;;;;;;8.30;7.60;;;15.60;99.90;;;;;;5139512;27;20462;-67
2021/10/03 04:38:39;;;;;;;8.20;6.87;;;15.60;1.00;;;;;;5139540;27;20454;-67
2021/10/03 04:41:07;;;;;;;8.47;7.43;;;15.50;1.00;;;;;;5139396;27;20821;-66
2021/10/03 04:43:34;;;;;;;8.73;7.93;;;15.50;1.00;;;;;;5139430;27;20838;-66
2021/10/03 04:46:01;;;;;;;8.83;7.53;;;15.50;1.00;;;;;;5138987;27;20458;-66
2021/10/03 04:48:29;;;;;;;9.07;7.97;;;15.50;1.00;;;;;;5139241;27;20901;-68
2021/10/03 04:50:56;;;;;;;10.50;8.00;;;15.60;1.00;;;;;;5138888;27;20463;-66
2021/10/03 04:53:23;;;;;;;9.90;8.90;;;15.50;1.00;;;;;;5138446;27;20454;-67
2021/10/03 04:55:51;;;;;;;8.90;7.97;;;15.50;79.20;;;;;;5138895;27;20758;-67
2021/10/03 04:58:17;;;;;;;10.10;8.27;;;15.50;99.90;;;;;;5138985;27;20486;-66
2021/10/03 05:00:44;;;;;;;9.77;8.00;;;15.40;99.90;;;;;;5138331;27;20490;-67
2021/10/03 05:03:11;;;;;;;11.20;8.70;;;15.50;17.50;;;;;;5138127;27;20594;-66
2021/10/03 05:05:40;;;;;;;10.60;8.37;;;15.50;1.00;;;;;;5139051;27;20511;-67
2021/10/03 05:08:08;;;;;;;11.90;9.70;;;15.50;1.00;;;;;;5138799;27;20494;-66
2021/10/03 05:10:36;;;;;;;9.07;8.03;;;15.60;1.00;;;;;;5138184;27;20440;-66
2021/10/03 05:13:03;;;;;;;9.47;7.77;;;15.60;1.00;;;;;;5138532;27;20501;-66
2021/10/03 05:15:30;;;;;;;12.30;9.43;;;15.60;1.00;;;;;;5138737;27;20468;-67
2021/10/03 05:17:57;;;;;;;9.80;8.07;;;15.60;1.00;;;;;;5138468;27;20463;-66
2021/10/03 05:20:24;;;;;;;9.30;8.40;;;15.60;1.00;;;;;;5138083;27;20458;-66
2021/10/03 05:22:52;;;;;;;14.43;9.27;;;15.50;32.70;;;;;;5138265;27;21019;-67
2021/10/03 05:25:22;;;;;;;10.57;9.40;;;15.50;99.90;;;;;;5138592;27;20493;-67
2021/10/03 05:27:49;;;;;;;9.27;8.47;;;15.50;99.90;;;;;;5138173;27;20462;-67
2021/10/03 05:30:16;;;;;;;9.87;8.90;;;15.50;99.90;;;;;;5137878;27;20516;-66
2021/10/03 05:32:45;;;;;;;11.70;9.50;;;15.50;99.90;;;;;;5137587;27;20546;-68
2021/10/03 05:35:12;;;;;;;10.73;9.73;;;15.50;99.90;;;;;;5138313;27;20570;-66
2021/10/03 05:37:39;;;;;;;10.47;9.47;;;15.50;99.90;;;;;;5138364;27;20937;-67
2021/10/03 05:40:09;;;;;;;10.53;8.90;;;15.60;99.90;;;;;;5137781;27;20507;-68
2021/10/03 05:42:36;;;;;;;12.50;9.03;;;15.50;99.90;;;;;;5137770;27;20487;-67
2021/10/03 05:45:04;;;;;;;10.90;9.30;;;15.50;99.90;;;;;;5138512;27;20459;-67
2021/10/03 05:47:31;;;;;;;9.20;8.30;;;15.60;99.90;;;;;;5138529;27;20934;-66
2021/10/03 05:49:58;;;;;;;10.67;9.57;;;15.60;99.90;;;;;;5137519;27;20463;-67
2021/10/03 05:52:25;;;;;;;10.87;9.23;;;15.60;99.90;;;;;;5137437;27;20519;-67
2021/10/03 05:54:52;;;;;;;11.47;8.87;;;15.70;99.90;;;;;;5138009;27;20793;-68
2021/10/03 05:57:24;;;;;;;11.57;9.90;;;15.70;99.90;;;;;;5138066;27;20733;-67
2021/10/03 05:59:53;;;;;;;10.03;9.03;;;15.70;99.90;;;;;;5137839;27;20458;-67
2021/10/03 06:02:20;;;;;;;10.53;9.47;;;15.60;99.90;;;;;;5137933;27;20555;-67
2021/10/03 06:04:47;;;;;;;10.17;8.83;;;15.70;99.90;;;;;;5138383;27;20507;-68
2021/10/03 06:07:14;;;;;;;9.83;8.80;;;15.70;99.90;;;;;;5138466;27;20464;-67
2021/10/03 06:09:42;;;;;;;11.93;8.13;;;15.70;99.90;;;;;;5138540;27;20511;-67
2021/10/03 06:12:12;;;;;;;10.57;9.47;;;15.70;99.90;;;;;;5137210;27;20929;-66
2021/10/03 06:14:40;;;;;;;12.03;8.93;;;15.70;99.90;;;;;;5138394;27;20776;-67
2021/10/03 06:17:11;;;;;;;9.73;8.77;;;15.80;1.00;;;;;;5138378;27;20937;-67
2021/10/03 06:19:38;;;;;;;9.53;8.63;;;15.80;21.10;;;;;;5138414;27;20462;-70
2021/10/03 06:22:05;;;;;;;11.10;10.00;;;15.80;11.40;;;;;;5137123;27;20812;-67
2021/10/03 06:24:32;;;;;;;10.63;9.40;;;15.80;1.00;;;;;;5138077;27;20712;-68
2021/10/03 06:26:59;;;;;;;11.40;8.53;;;15.90;99.90;;;;;;5138340;27;20902;-67
2021/10/03 06:29:29;;;;;;;10.80;9.80;;;15.90;99.90;;;;;;5137827;28;20455;-66
2021/10/03 06:31:58;;;;;;;9.73;8.73;;;16.00;99.90;;;;;;5137954;28;20786;-67
2021/10/03 06:34:25;;;;;;;11.73;9.30;;;16.00;13.80;;;;;;5138022;28;20522;-67
2021/10/03 06:36:51;;;;;;;10.27;9.13;;;16.00;1.00;;;;;;5137989;28;20462;-67
2021/10/03 06:39:18;;;;;;;11.13;9.00;;;16.00;99.90;;;;;;5138217;28;20484;-67
2021/10/03 06:41:48;;;;;;;41.63;31.10;;;16.10;99.90;;;;;;5138163;28;20455;-68
2021/10/03 06:44:15;;;;;;;16.30;14.50;;;16.20;99.90;;;;;;5137798;28;20525;-67
2021/10/03 06:46:42;;;;;;;17.40;14.70;;;16.20;1.00;;;;;;5137821;28;20945;-66
2021/10/03 06:49:11;;;;;;;16.60;14.87;;;16.30;1.00;;;;;;5137839;28;20484;-67
2021/10/03 06:51:42;;;;;;;13.10;11.67;;;16.20;99.90;;;;;;5138407;28;20450;-68
2021/10/03 06:54:10;;;;;;;13.77;10.90;;;16.20;99.90;;;;;;5137859;28;20466;-67
2021/10/03 06:56:37;;;;;;;19.53;15.60;;;16.20;1.00;;;;;;5137712;28;20497;-68
2021/10/03 06:59:04;;;;;;;10.90;9.67;;;16.20;1.00;;;;;;5137516;28;20494;-69
2021/10/03 07:01:31;;;;;;;12.90;9.60;;;16.10;99.90;;;;;;5137798;28;20454;-68
2021/10/03 07:03:58;;;;;;;10.20;9.10;;;16.10;99.90;;;;;;5137349;28;20491;-67
2021/10/03 07:06:27;;;;;;;8.73;7.93;;;16.10;99.90;;;;;;5137910;28;20891;-68
2021/10/03 07:08:54;;;;;;;12.00;10.13;;;16.20;82.10;;;;;;5137666;28;20458;-68
2021/10/03 07:11:21;;;;;;;14.80;10.43;;;16.20;99.90;;;;;;5136663;28;21029;-66
2021/10/03 07:13:50;;;;;;;10.47;8.17;;;16.10;1.00;;;;;;5136456;28;20881;-68
2021/10/03 07:16:20;;;;;;;17.83;8.53;;;16.20;1.00;;;;;;5135563;27;20538;-66
2021/10/03 07:18:47;;;;;;;12.90;11.60;;;16.30;99.90;;;;;;5136069;28;20465;-67
2021/10/03 07:21:14;;;;;;;10.47;8.70;;;16.30;99.90;;;;;;5136590;28;20458;-66
2021/10/03 07:23:42;;;;;;;15.23;13.67;;;16.30;1.00;;;;;;5136786;28;20824;-68
2021/10/03 07:26:11;;;;;;;10.33;9.33;;;16.30;42.30;;;;;;5136892;28;20889;-65
2021/10/03 07:28:40;;;;;;;9.33;7.90;;;16.30;99.90;;;;;;5136714;28;20462;-66
2021/10/03 07:31:11;;;;;;;12.13;9.40;;;16.20;99.90;;;;;;5136690;28;20865;-67
2021/10/03 07:33:38;;;;;;;14.00;10.60;;;16.20;1.00;;;;;;5138057;27;20465;-67
2021/10/03 07:36:05;;;;;;;9.53;8.57;;;16.20;1.00;;;;;;5139918;27;20958;-66
2021/10/03 07:38:32;;;;;;;10.70;9.50;;;16.20;99.90;;;;;;5140349;27;20515;-68
2021/10/03 07:41:04;;;;;;;12.20;10.37;;;16.30;1.00;;;;;;5139505;27;20908;-68
2021/10/03 07:43:34;;;;;;;9.50;8.60;;;16.30;99.90;;;;;;5140210;27;20518;-67
2021/10/03 07:46:01;;;;;;;9.47;8.57;;;16.20;99.90;;;;;;5140226;27;20483;-67
2021/10/03 07:48:28;;;;;;;9.60;8.07;;;16.20;1.00;;;;;;5140411;27;20458;-67
2021/10/03 07:50:55;;;;;;;10.10;9.20;;;16.20;1.00;;;;;;5140018;27;20505;-68
2021/10/03 07:53:24;;;;;;;8.23;7.43;;;16.10;1.00;;;;;;5140349;27;20437;-68
2021/10/03 07:55:51;;;;;;;10.40;9.40;;;16.10;99.90;;;;;;5139784;27;20515;-67
2021/10/03 07:58:19;;;;;;;10.03;8.20;;;16.10;1.00;;;;;;5140258;27;20463;-65
2021/10/03 08:00:46;;;;;;;11.43;8.37;;;16.00;99.90;;;;;;5140109;27;20433;-67
2021/10/03 08:03:13;;;;;;;8.87;7.97;;;16.00;1.00;;;;;;5139168;27;20955;-67
2021/10/03 08:05:40;;;;;;;8.37;7.63;;;16.00;1.00;;;;;;5140175;27;20511;-67
2021/10/03 08:08:08;;;;;;;9.50;8.60;;;16.00;1.00;;;;;;5139428;27;20469;-68
2021/10/03 08:10:36;;;;;;;11.30;8.20;;;16.00;1.00;;;;;;5139587;27;20458;-67
2021/10/03 08:13:04;;;;;;;9.87;8.13;;;16.00;99.90;;;;;;5140048;27;20458;-67
2021/10/03 08:15:34;;;;;;;9.43;8.50;;;16.00;1.00;;;;;;5139944;27;20801;-68
2021/10/03 08:18:01;;;;;;;9.70;8.23;;;16.00;99.90;;;;;;5139845;27;20463;-66
2021/10/03 08:20:28;;;;;;;8.93;8.00;;;16.00;1.00;;;;;;5140170;27;20458;-67
2021/10/03 08:22:58;;;;;;;9.17;8.27;;;15.90;1.00;;;;;;5139684;27;20853;-67
2021/10/03 08:25:27;;;;;;;9.77;8.80;;;15.90;1.00;;;;;;5139830;27;20554;-66
2021/10/03 08:27:54;;;;;;;9.30;7.70;;;15.90;99.90;;;;;;5138771;27;20523;-67
2021/10/03 08:30:21;;;;;;;10.40;9.40;;;15.90;99.90;;;;;;5139532;27;20562;-67
2021/10/03 08:32:50;;;;;;;10.00;8.90;;;15.80;99.90;;;;;;5139383;27;20458;-66
2021/10/03 08:35:17;;;;;;;11.77;9.93;;;15.80;99.90;;;;;;5139969;27;20458;-67
2021/10/03 08:37:44;;;;;;;9.97;9.07;;;15.90;99.90;;;;;;5139794;27;20807;-67
2021/10/03 08:40:15;;;;;;;13.50;9.70;;;15.80;99.90;;;;;;5138802;27;20469;-67
2021/10/03 08:42:42;;;;;;;10.50;9.50;;;15.80;99.90;;;;;;5139150;27;20505;-67
2021/10/03 08:45:13;;;;;;;10.20;8.57;;;15.80;99.90;;;;;;5138432;27;20490;-67
2021/10/03 08:47:41;;;;;;;13.20;9.97;;;15.80;99.90;;;;;;5139389;27;20455;-67
2021/10/03 08:50:13;;;;;;;10.53;9.17;;;15.80;99.90;;;;;;5138876;27;20508;-68
2021/10/03 08:52:41;;;;;;;10.10;9.10;;;15.80;99.90;;;;;;5138456;27;20430;-66
2021/10/03 08:55:10;;;;;;;15.13;12.00;;;15.90;99.90;;;;;;5138603;27;20482;-68
2021/10/03 08:57:37;;;;;;;12.37;11.17;;;15.80;99.90;;;;;;5138371;27;20454;-68
2021/10/03 09:00:08;;;;;;;9.03;8.23;;;15.80;99.90;;;;;;5137757;27;20455;-66
2021/10/03 09:02:57;;;;;;;11.73;10.67;;;15.80;99.90;;;;;;5137690;27;20691;-68
2021/10/03 09:05:28;;;;;;;11.30;9.57;;;15.80;99.90;;;;;;5138616;27;20521;-69
2021/10/03 09:08:09;;;;;;;12.20;11.00;;;15.90;99.90;;;;;;5137419;27;20512;-67
2021/10/03 09:10:58;;;;;;;10.53;8.87;;;15.90;99.90;;;;;;5138085;27;20950;-67
2021/10/03 09:13:44;;;;;;;10.90;8.83;;;15.90;99.90;;;;;;5138433;27;20467;-66
2021/10/03 09:16:22;;;;;;;9.00;8.10;;;15.90;99.90;;;;;;5138338;27;20462;-70
2021/10/03 09:18:51;;;;;;;11.20;9.00;;;15.90;99.90;;;;;;5138557;27;20462;-68
2021/10/03 09:21:40;;;;;;;11.13;9.20;;;15.90;99.90;;;;;;5138337;27;20488;-66
2021/10/03 09:24:18;;;;;;;10.50;9.40;;;16.00;99.90;;;;;;5119167;27;20519;-68
2021/10/03 09:26:57;;;;;;;10.37;9.37;;;15.90;99.90;;;;;;5138568;27;20513;-70
2021/10/03 09:29:27;;;;;;;11.23;10.13;;;16.00;99.90;;;;;;5138587;27;20473;-69
2021/10/03 09:32:11;;;;;;;9.57;8.63;;;16.00;99.90;;;;;;5137705;27;20454;-67
2021/10/03 09:34:44;;;;;;;9.60;8.70;;;15.90;99.90;;;;;;5138326;27;20516;-68
2021/10/03 09:37:22;;;;;;;12.43;11.27;;;16.00;99.90;;;;;;5138336;27;20461;-68
2021/10/03 09:39:51;;;;;;;10.40;9.30;;;16.00;99.90;;;;;;5138075;27;20883;-68
2021/10/03 09:42:19;;;;;;;11.27;10.17;;;16.00;99.90;;;;;;5137191;27;20950;-67
2021/10/03 09:45:09;;;;;;;12.70;11.50;;;16.10;99.90;;;;;;5137841;27;20497;-67
2021/10/03 09:47:37;;;;;;;12.73;10.87;;;16.10;99.90;;;;;;5117413;28;20482;-66
2021/10/03 09:50:10;;;;;;;13.83;10.43;;;16.20;99.90;;;;;;5129274;27;20531;-67
2021/10/03 09:52:40;;;;;;;10.40;9.30;;;16.20;99.90;;;;;;5137853;27;20458;-67
2021/10/03 09:55:13;;;;;;;9.63;8.47;;;16.20;99.90;;;;;;5137675;27;20455;-66
2021/10/03 09:57:41;;;;;;;9.07;6.97;;;16.30;99.90;;;;;;5137031;27;20838;-67
2021/10/03 10:00:09;;;;;;;7.63;6.93;;;16.30;99.90;;;;;;5137058;27;20462;-67
2021/10/03 10:02:47;;;;;;;8.80;8.00;;;16.30;1.00;;;;;;5136050;27;20490;-68
2021/10/03 10:05:18;;;;;;;7.90;6.63;;;16.40;1.00;;;;;;5135739;27;20494;-66
2021/10/03 10:07:49;;;;;;;8.57;7.77;;;16.40;99.90;;;;;;5137702;27;20461;-66
2021/10/03 10:10:19;;;;;;;8.83;7.57;;;16.50;1.00;;;;;;5137433;27;20463;-67
2021/10/03 10:12:52;;;;;;;8.47;7.67;;;16.40;1.00;;;;;;5137520;27;20916;-68
2021/10/03 10:15:24;;;;;;;9.50;7.53;;;16.40;1.00;;;;;;5117083;28;20490;-69
2021/10/03 10:17:54;;;;;;;10.83;8.07;;;16.40;99.90;;;;;;5117621;27;20489;-69
2021/10/03 10:20:37;;;;;;;8.90;7.60;;;16.50;1.00;;;;;;5137298;27;20458;-68
2021/10/03 10:23:09;;;;;;;8.40;7.70;;;16.40;99.90;;;;;;5120819;27;20507;-68
2021/10/03 10:25:44;;;;;;;10.27;8.20;;;16.50;99.90;;;;;;5137737;27;20514;-68
2021/10/03 10:28:14;;;;;;;8.00;7.20;;;16.50;5.20;;;;;;5137642;27;20544;-67
2021/10/03 10:31:10;;;;;;;9.03;8.13;;;16.50;1.00;;;;;;5137764;27;20494;-66
2021/10/03 10:34:06;;;;;;;11.30;7.77;;;16.60;99.90;;;;;;5137063;27;20799;-67
2021/10/03 10:36:38;;;;;;;7.77;7.07;;;16.60;99.90;;;;;;5137220;28;20463;-67
2021/10/03 10:39:24;;;;;;;8.90;8.00;;;16.50;1.00;;;;;;5137798;28;20458;-67
2021/10/03 10:41:53;;;;;;;8.73;7.93;;;16.60;83.40;;;;;;5136623;28;20441;-68
2021/10/03 10:44:43;;;;;;;9.70;8.00;;;16.60;1.00;;;;;;5137495;28;20613;-68
2021/10/03 10:47:14;;;;;;;11.30;10.17;;;16.60;1.00;;;;;;5137143;28;20458;-66
2021/10/03 10:50:01;;;;;;;8.80;7.90;;;16.60;1.00;;;;;;5137617;28;20466;-70
2021/10/03 10:52:33;;;;;;;10.57;9.57;;;16.70;99.90;;;;;;5134544;28;20454;-67
2021/10/03 10:55:30;;;;;;;9.43;7.77;;;16.70;99.90;;;;;;5137254;28;20699;-67
2021/10/03 10:58:22;;;;;;;10.73;9.73;;;16.60;99.90;;;;;;5136969;28;20869;-68
2021/10/03 11:01:04;;;;;;;10.50;9.40;;;16.70;1.00;;;;;;5137222;28;20507;-68
2021/10/03 11:04:09;;;;;;;8.37;7.57;;;16.60;1.00;;;;;;5136124;28;20561;-66
2021/10/03 11:07:04;;;;;;;9.70;8.70;;;16.60;1.00;;;;;;5136784;28;20454;-67
2021/10/03 11:09:34;;;;;;;9.20;8.30;;;16.60;1.00;;;;;;5140830;27;20838;-68
2021/10/03 11:12:08;;;;;;;8.73;7.93;;;16.60;59.50;;;;;;5140960;27;20507;-67
2021/10/03 11:14:37;;;;;;;12.57;9.50;;;16.60;30.10;;;;;;5141286;27;20450;-68
2021/10/03 11:17:09;;;;;;;8.47;7.67;;;16.60;1.00;;;;;;5141130;27;20454;-68
2021/10/03 11:19:47;;;;;;;11.13;8.60;;;16.70;1.00;;;;;;5141378;27;20763;-68
2021/10/03 11:22:17;;;;;;;10.53;9.47;;;16.70;1.00;;;;;;5140728;27;20884;-68
2021/10/03 11:24:47;;;;;;;8.70;7.90;;;16.70;40.00;;;;;;5140424;27;20547;-68
2021/10/03 11:27:18;;;;;;;10.80;9.70;;;16.80;99.90;;;;;;5140656;27;20529;-67
2021/10/03 11:29:51;;;;;;;10.50;8.20;;;16.80;40.10;;;;;;5141081;27;20808;-67
2021/10/03 11:32:21;;;;;;;10.90;9.23;;;16.80;99.90;;;;;;5140685;27;20462;-66
2021/10/03 11:34:55;;;;;;;12.60;10.60;;;16.80;99.90;;;;;;5140746;27;20466;-66
2021/10/03 11:37:30;;;;;;;18.10;16.10;;;16.80;99.90;;;;;;5139690;27;20474;-66
2021/10/03 11:39:58;;;;;;;12.40;11.30;;;16.80;64.10;;;;;;5140247;27;20469;-66
2021/10/03 11:42:35;;;;;;;14.23;11.10;;;16.80;1.00;;;;;;5140475;27;20462;-65
2021/10/03 11:45:10;;;;;;;11.03;9.80;;;16.90;1.00;;;;;;5140576;27;20530;-65
2021/10/03 11:47:40;;;;;;;13.63;11.60;;;16.90;99.90;;;;;;5139770;27;20528;-66
2021/10/03 11:50:13;;;;;;;10.00;8.90;;;16.90;99.90;;;;;;5140308;27;20491;-66
2021/10/03 11:52:41;;;;;;;8.87;8.00;;;16.90;99.90;;;;;;5140231;27;21079;-65
2021/10/03 11:55:15;;;;;;;12.23;9.17;;;16.90;99.90;;;;;;5140494;27;20462;-68
2021/10/03 11:57:46;;;;;;;11.53;10.23;;;16.90;82.30;;;;;;5140504;27;20844;-66
2021/10/03 12:00:16;;;;;;;11.23;9.40;;;17.00;99.90;;;;;;5140157;27;20881;-65
2021/10/03 12:02:45;;;;;;;9.33;7.83;;;17.00;99.90;;;;;;5139435;27;20535;-64
2021/10/03 12:05:16;;;;;;;10.90;9.80;;;17.10;99.90;;;;;;5140179;27;20543;-64
2021/10/03 12:07:46;;;;;;;9.63;8.30;;;17.10;99.90;;;;;;5140468;27;20651;-64
2021/10/03 12:10:15;;;;;;;8.17;7.37;;;17.10;1.00;;;;;;5133917;27;20971;-64
2021/10/03 12:12:55;;;;;;;9.43;8.10;;;17.10;99.90;;;;;;5139644;27;20490;-63
2021/10/03 12:15:55;;;;;;;8.50;7.80;;;17.20;1.00;;;;;;5140175;27;20451;-64
2021/10/03 12:18:50;;;;;;;8.07;7.27;;;17.20;1.00;;;;;;5138896;27;20466;-64
2021/10/03 12:21:28;;;;;;;7.47;6.77;;;17.20;1.00;;;;;;5090763;27;20466;-64
2021/10/03 12:24:11;;;;;;;7.90;7.17;;;17.20;99.90;;;;;;5139719;27;20520;-68
2021/10/03 12:26:41;;;;;;;6.90;6.30;;;17.10;99.90;;;;;;5139598;27;20874;-64
2021/10/03 12:29:24;;;;;;;7.10;6.40;;;17.20;99.90;;;;;;5139775;27;20516;-64
2021/10/03 12:32:03;;;;;;;7.63;6.83;;;17.20;16.80;;;;;;5139020;27;20448;-66
2021/10/03 12:34:52;;;;;;;8.00;7.30;;;17.20;1.00;;;;;;5139678;27;20535;-65
2021/10/03 12:37:21;;;;;;;8.30;7.50;;;17.20;99.90;;;;;;5139889;27;20478;-66
2021/10/03 12:39:52;;;;;;;8.37;7.57;;;17.20;99.90;;;;;;5137629;27;20494;-67
2021/10/03 12:42:21;;;;;;;8.13;7.33;;;17.20;99.90;;;;;;5139189;27;20546;-66
2021/10/03 12:44:52;;;;;;;8.07;7.27;;;17.10;1.00;;;;;;5138001;27;20535;-67
2021/10/03 12:47:19;;;;;;;9.23;7.30;;;17.00;1.00;;;;;;5138483;27;20462;-67
2021/10/03 12:49:46;;;;;;;8.17;7.47;;;17.00;95.70;;;;;;5137625;27;20471;-65
2021/10/03 12:52:15;;;;;;;7.90;5.97;;;17.10;1.00;;;;;;5129613;27;20498;-65
2021/10/03 12:54:45;;;;;;;9.40;7.60;;;17.10;89.10;;;;;;5132900;27;20909;-65
2021/10/03 12:57:15;;;;;;;9.33;7.80;;;17.20;13.10;;;;;;5128664;27;20478;-66
2021/10/03 12:59:42;;;;;;;7.10;6.40;;;17.20;99.90;;;;;;5138872;27;20463;-64
2021/10/03 13:02:13;;;;;;;9.50;8.60;;;17.20;1.00;;;;;;5129935;27;20465;-66